createdAt,value
2023-03-11T00:00:46.766Z,81.45
2023-03-11T00:03:25.230Z,81.47
2023-03-11T00:05:53.293Z,81.42
2023-03-11T00:08:22.750Z,81.37
2023-03-11T00:10:54.793Z,81.31
2023-03-11T00:13:21.738Z,81.21
2023-03-11T00:15:50.720Z,81.25
2023-03-11T00:18:18.101Z,81.30
2023-03-11T00:20:46.437Z,81.39
2023-03-11T00:23:14.390Z,81.37
2023-03-11T00:25:44.226Z,81.38
2023-03-11T00:28:11.891Z,81.31
2023-03-11T00:30:40.106Z,81.20
2023-03-11T00:33:07.168Z,81.23
2023-03-11T00:35:35.230Z,81.29
2023-03-11T00:38:06.577Z,81.36
2023-03-11T00:40:35.372Z,81.43
2023-03-11T00:43:02.824Z,81.56
2023-03-11T00:45:30.152Z,81.46
2023-03-11T00:47:57.602Z,81.49
2023-03-11T00:50:29.117Z,81.47
2023-03-11T00:52:56.744Z,81.48
2023-03-11T00:55:30.649Z,81.55
2023-03-11T00:58:01.924Z,81.66
2023-03-11T01:00:34.682Z,81.69
2023-03-11T01:03:02.780Z,81.78
2023-03-11T01:05:31.949Z,81.84
2023-03-11T01:07:59.710Z,81.85
2023-03-11T01:10:28.104Z,82.00
2023-03-11T01:12:55.342Z,82.11
2023-03-11T01:15:26.514Z,82.05
2023-03-11T01:17:53.418Z,82.26
2023-03-11T01:20:20.218Z,82.24
2023-03-11T01:22:47.294Z,82.31
2023-03-11T01:25:15.953Z,82.49
2023-03-11T01:27:43.984Z,82.57
2023-03-11T01:30:14.484Z,82.57
2023-03-11T01:32:41.593Z,82.67
2023-03-11T01:35:11.998Z,82.73
2023-03-11T01:37:38.661Z,82.72
2023-03-11T01:40:07.044Z,82.78
2023-03-11T01:42:33.724Z,82.78
2023-03-11T01:45:00.330Z,82.85
2023-03-11T01:47:36.055Z,82.85
2023-03-11T01:50:07.743Z,82.73
2023-03-11T01:52:35.225Z,82.64
2023-03-11T01:55:02.138Z,82.76
2023-03-11T01:57:29.385Z,82.79
2023-03-11T02:00:00.674Z,82.78
2023-03-11T02:02:39.931Z,82.78
2023-03-11T02:05:07.725Z,82.76
2023-03-11T02:07:34.573Z,82.83
2023-03-11T02:10:02.260Z,82.85
2023-03-11T02:12:34.828Z,82.85
2023-03-11T02:15:02.677Z,82.91
2023-03-11T02:17:31.867Z,82.90
2023-03-11T02:20:01.464Z,82.70
2023-03-11T02:22:32.912Z,82.59
2023-03-11T02:25:21.682Z,82.57
2023-03-11T02:27:52.987Z,82.68
2023-03-11T02:30:23.336Z,82.80
2023-03-11T02:32:50.687Z,82.80
2023-03-11T02:35:18.697Z,82.72
2023-03-11T02:37:47.530Z,82.76
2023-03-11T02:40:23.461Z,82.79
2023-03-11T02:43:14.353Z,82.68
2023-03-11T02:45:45.135Z,82.68
2023-03-11T02:48:14.000Z,82.80
2023-03-11T02:50:41.082Z,82.84
2023-03-11T02:53:08.421Z,83.10
2023-03-11T02:55:35.266Z,83.41
2023-03-11T02:58:01.956Z,83.59
2023-03-11T03:00:28.962Z,83.50
2023-03-11T03:03:00.430Z,83.08
2023-03-11T03:05:27.169Z,82.90
2023-03-11T03:07:54.325Z,82.68
2023-03-11T03:10:21.806Z,82.58
2023-03-11T03:12:48.583Z,82.39
2023-03-11T03:15:15.786Z,82.66
2023-03-11T03:17:43.587Z,82.98
2023-03-11T03:20:11.959Z,83.40
2023-03-11T03:22:41.609Z,83.91
2023-03-11T03:25:10.156Z,84.28
2023-03-11T03:27:37.793Z,84.76
2023-03-11T03:30:06.143Z,85.09
2023-03-11T03:32:33.548Z,85.33
2023-03-11T03:35:01.683Z,85.54
2023-03-11T03:37:40.810Z,85.67
2023-03-11T03:40:08.709Z,85.76
2023-03-11T03:42:37.406Z,85.85
2023-03-11T03:45:07.434Z,85.96
2023-03-11T03:47:34.570Z,86.00
2023-03-11T03:50:07.206Z,85.97
2023-03-11T03:52:35.289Z,85.85
2023-03-11T03:55:03.159Z,85.80
2023-03-11T03:57:29.875Z,85.72
2023-03-11T03:59:56.895Z,85.69
2023-03-11T04:02:49.188Z,85.55
2023-03-11T04:05:26.248Z,85.41
2023-03-11T04:07:54.255Z,85.32
2023-03-11T04:10:21.796Z,85.25
2023-03-11T04:12:49.255Z,85.15
2023-03-11T04:15:16.054Z,85.07
2023-03-11T04:17:43.580Z,84.96
2023-03-11T04:20:11.350Z,84.84
2023-03-11T04:22:38.142Z,84.73
2023-03-11T04:25:05.364Z,84.66
2023-03-11T04:27:32.355Z,84.53
2023-03-11T04:29:59.901Z,84.42
2023-03-11T04:34:36.455Z,84.01
2023-03-11T04:37:05.286Z,84.01
2023-03-11T04:39:34.950Z,83.98
2023-03-11T04:42:04.154Z,83.94
2023-03-11T04:44:35.958Z,83.87
2023-03-11T04:47:04.983Z,83.83
2023-03-11T04:49:33.160Z,83.79
2023-03-11T04:52:01.688Z,83.75
2023-03-11T04:54:30.442Z,83.71
2023-03-11T04:56:58.815Z,83.71
2023-03-11T04:59:27.143Z,83.67
2023-03-11T05:01:55.632Z,83.67
2023-03-11T05:04:24.187Z,83.71
2023-03-11T05:06:52.378Z,83.75
2023-03-11T05:09:20.955Z,83.74
2023-03-11T05:11:49.337Z,83.79
2023-03-11T05:14:18.652Z,83.87
2023-03-11T05:16:47.115Z,83.93
2023-03-11T05:19:36.665Z,84.03
2023-03-11T05:22:10.340Z,84.07
2023-03-11T05:24:38.946Z,84.11
2023-03-11T05:27:07.406Z,84.12
2023-03-11T05:29:36.602Z,84.19
2023-03-11T05:32:06.356Z,84.24
2023-03-11T05:34:34.685Z,84.34
2023-03-11T05:37:03.385Z,84.46
2023-03-11T05:39:32.315Z,84.61
2023-03-11T05:42:00.915Z,84.73
2023-03-11T05:44:29.248Z,84.87
2023-03-11T05:46:57.777Z,85.04
2023-03-11T05:49:26.462Z,85.18
2023-03-11T05:51:58.352Z,85.35
2023-03-11T05:54:26.885Z,85.60
2023-03-11T05:56:55.996Z,85.72
2023-03-11T05:59:24.403Z,85.90
2023-03-11T06:01:57.189Z,85.95
2023-03-11T06:04:25.546Z,86.09
2023-03-11T06:06:53.973Z,86.20
2023-03-11T06:09:24.043Z,86.39
2023-03-11T06:11:52.937Z,86.57
2023-03-11T06:14:22.490Z,86.57
2023-03-11T06:16:51.492Z,86.53
2023-03-11T06:19:20.642Z,86.50
2023-03-11T06:21:50.206Z,86.42
2023-03-11T06:24:19.247Z,86.39
2023-03-11T06:26:51.540Z,86.42
2023-03-11T06:29:24.402Z,86.40
2023-03-11T06:31:53.314Z,86.41
2023-03-11T06:34:22.007Z,86.38
2023-03-11T06:36:50.176Z,86.41
2023-03-11T06:39:18.259Z,86.36
2023-03-11T06:41:48.558Z,86.31
2023-03-11T06:44:17.618Z,86.41
2023-03-11T06:46:45.765Z,86.47
2023-03-11T06:49:14.421Z,86.53
2023-03-11T06:51:42.796Z,86.48
2023-03-11T06:54:14.639Z,86.34
2023-03-11T06:56:42.920Z,86.26
2023-03-11T06:59:11.387Z,86.14
2023-03-11T07:01:40.201Z,86.19
2023-03-11T07:04:10.583Z,86.16
2023-03-11T07:06:41.902Z,86.12
2023-03-11T07:09:14.833Z,86.13
2023-03-11T07:11:45.027Z,86.11
2023-03-11T07:14:17.243Z,86.08
2023-03-11T07:16:48.524Z,86.17
2023-03-11T07:19:33.687Z,86.19
2023-03-11T07:22:01.865Z,86.19
2023-03-11T07:24:30.271Z,86.18
2023-03-11T07:26:58.683Z,86.21
2023-03-11T07:29:26.792Z,86.21
2023-03-11T07:31:55.026Z,86.23
2023-03-11T07:34:23.379Z,86.24
2023-03-11T07:36:51.343Z,86.27
2023-03-11T07:39:20.137Z,86.29
2023-03-11T07:41:48.236Z,86.33
2023-03-11T07:44:18.270Z,86.37
2023-03-11T07:46:46.909Z,86.37
2023-03-11T07:49:15.199Z,86.41
2023-03-11T07:51:44.153Z,86.40
2023-03-11T07:54:13.715Z,86.43
2023-03-11T07:56:42.198Z,86.48
2023-03-11T07:59:10.680Z,86.50
2023-03-11T08:01:41.509Z,86.54
2023-03-11T08:04:14.430Z,86.60
2023-03-11T08:06:45.844Z,86.62
2023-03-11T08:09:14.325Z,86.59
2023-03-11T08:11:43.302Z,86.56
2023-03-11T08:14:11.732Z,86.52
2023-03-11T08:16:41.211Z,86.11
2023-03-11T08:19:12.275Z,86.07
2023-03-11T08:21:40.390Z,85.90
2023-03-11T08:24:11.954Z,86.03
2023-03-11T08:26:40.730Z,86.23
2023-03-11T08:29:08.941Z,86.05
2023-03-11T08:31:37.179Z,85.94
2023-03-11T08:34:08.619Z,86.02
2023-03-11T08:36:37.219Z,85.92
2023-03-11T08:39:05.776Z,85.98
2023-03-11T08:41:34.188Z,85.97
2023-03-11T08:44:02.594Z,86.02
2023-03-11T08:46:39.286Z,86.02
2023-03-11T08:49:07.493Z,85.97
2023-03-11T08:51:36.186Z,85.87
2023-03-11T08:54:05.210Z,85.82
2023-03-11T08:56:33.929Z,85.88
2023-03-11T08:59:02.330Z,85.92
2023-03-11T09:01:30.630Z,85.99
2023-03-11T09:03:58.904Z,86.17
2023-03-11T09:06:27.204Z,86.41
2023-03-11T09:08:55.435Z,86.73
2023-03-11T09:11:23.965Z,87.00
2023-03-11T09:13:52.298Z,87.07
2023-03-11T09:16:23.883Z,87.29
2023-03-11T09:18:52.095Z,87.16
2023-03-11T09:21:20.869Z,87.15
2023-03-11T09:23:49.466Z,87.29
2023-03-11T09:26:17.493Z,87.45
2023-03-11T09:28:49.152Z,87.68
2023-03-11T09:31:18.427Z,87.85
2023-03-11T09:33:47.552Z,87.96
2023-03-11T09:36:20.821Z,88.27
2023-03-11T09:38:49.551Z,88.66
2023-03-11T09:41:17.614Z,88.39
2023-03-11T09:44:10.381Z,88.16
2023-03-11T09:46:57.689Z,88.25
2023-03-11T09:49:42.670Z,87.98
2023-03-11T09:52:39.835Z,87.63
2023-03-11T11:04:40.772Z,88.44
2023-03-11T11:07:32.446Z,88.49
2023-03-11T11:10:29.748Z,88.46
2023-03-11T11:13:04.052Z,88.68
2023-03-11T11:15:34.414Z,88.56
2023-03-11T11:18:15.567Z,88.68
2023-03-11T11:21:32.322Z,88.69
2023-03-11T11:24:13.959Z,88.12
2023-03-11T11:26:42.372Z,88.29
2023-03-11T11:29:12.398Z,88.55
2023-03-11T11:31:46.029Z,88.51
2023-03-11T11:34:25.289Z,88.57
2023-03-11T11:36:54.532Z,88.54
2023-03-11T11:39:26.025Z,88.65
2023-03-11T11:41:56.316Z,88.33
2023-03-11T11:44:33.806Z,88.20
2023-03-11T11:47:16.950Z,88.27
2023-03-11T11:49:57.056Z,88.38
2023-03-11T11:52:35.380Z,88.22
2023-03-11T11:55:20.505Z,88.40
2023-03-11T11:57:49.294Z,88.44
2023-03-11T12:00:31.199Z,88.20
2023-03-11T12:03:10.295Z,88.31
2023-03-11T12:05:58.116Z,88.41
2023-03-11T12:08:35.109Z,88.47
2023-03-11T12:11:08.979Z,88.65
2023-03-11T12:14:21.671Z,88.87
2023-03-11T12:17:03.381Z,88.86
2023-03-11T12:19:46.105Z,88.92
2023-03-11T12:22:34.278Z,88.80
2023-03-11T12:25:05.409Z,88.46
2023-03-11T12:27:45.520Z,88.52
2023-03-11T12:30:23.639Z,88.32
2023-03-11T12:32:59.184Z,88.56
2023-03-11T12:35:35.488Z,88.80
2023-03-11T12:38:17.609Z,88.90
2023-03-11T12:40:59.216Z,88.75
2023-03-11T12:43:33.938Z,88.68
2023-03-11T12:46:04.495Z,88.79
2023-03-11T12:48:53.470Z,88.48
2023-03-11T12:51:27.671Z,88.62
2023-03-11T12:53:57.357Z,88.83
2023-03-11T12:56:41.619Z,88.79
2023-03-11T12:59:36.433Z,88.37
2023-03-11T13:02:09.722Z,88.52
2023-03-11T13:04:51.716Z,88.60
2023-03-11T13:07:22.562Z,88.69
2023-03-11T13:10:21.751Z,88.90
2023-03-11T13:12:53.676Z,89.03
2023-03-11T13:15:21.723Z,89.12
2023-03-11T13:18:24.231Z,89.25
2023-03-11T13:21:03.024Z,89.13
2023-03-11T13:23:35.520Z,89.02
2023-03-11T13:26:35.908Z,89.12
2023-03-11T13:29:41.564Z,89.29
2023-03-11T13:32:53.601Z,89.23
2023-03-11T13:35:45.486Z,89.08
2023-03-11T13:38:40.260Z,88.85
2023-03-11T13:41:22.417Z,89.34
2023-03-11T13:43:52.716Z,88.89
2023-03-11T13:46:27.338Z,88.36
2023-03-11T13:49:05.874Z,88.37
2023-03-11T13:51:45.671Z,88.48
2023-03-11T13:54:20.265Z,88.65
2023-03-11T13:56:59.882Z,88.83
2023-03-11T13:59:34.827Z,88.67
2023-03-11T14:02:06.869Z,88.55
2023-03-11T14:04:38.022Z,88.35
2023-03-11T14:07:23.939Z,87.92
2023-03-11T14:09:52.767Z,87.50
2023-03-11T14:12:20.793Z,87.92
2023-03-11T14:14:59.094Z,87.76
2023-03-11T14:17:27.350Z,87.42
2023-03-11T14:20:08.191Z,87.12
2023-03-11T14:22:38.132Z,86.86
2023-03-11T14:25:11.165Z,86.79
2023-03-11T14:27:39.676Z,86.61
2023-03-11T14:30:20.265Z,85.86
2023-03-11T14:33:06.495Z,85.72
2023-03-11T14:35:34.806Z,85.50
2023-03-11T14:38:02.880Z,85.20
2023-03-11T14:40:34.442Z,85.11
2023-03-11T14:43:08.644Z,84.79
2023-03-11T14:45:40.535Z,84.47
2023-03-11T14:48:18.138Z,84.01
2023-03-11T14:50:52.518Z,83.40
2023-03-11T14:53:25.261Z,83.31
2023-03-11T14:55:59.467Z,83.21
2023-03-11T14:58:37.356Z,83.04
2023-03-11T15:01:21.624Z,83.03
2023-03-11T15:04:01.451Z,82.88
2023-03-11T15:06:31.108Z,82.55
2023-03-11T15:09:08.369Z,82.06
2023-03-11T15:11:52.397Z,81.64
2023-03-11T15:14:33.656Z,80.82
2023-03-11T15:17:33.115Z,81.18
2023-03-11T15:20:02.610Z,81.28
2023-03-11T15:22:37.249Z,81.42
2023-03-11T15:25:17.815Z,81.47
2023-03-11T15:27:46.569Z,81.14
2023-03-11T15:30:22.628Z,81.16
2023-03-11T15:32:52.638Z,81.32
2023-03-11T15:35:42.702Z,81.40
2023-03-11T15:38:25.457Z,81.83
2023-03-11T15:41:03.103Z,82.52
2023-03-11T15:43:47.709Z,83.13
2023-03-11T15:46:16.076Z,83.67
2023-03-11T15:48:44.581Z,84.17
2023-03-11T15:51:20.780Z,84.41
2023-03-11T15:53:49.110Z,84.14
2023-03-11T15:56:25.152Z,84.05
2023-03-11T15:58:54.873Z,83.77
2023-03-11T16:01:28.600Z,83.57
2023-03-11T16:03:57.198Z,83.21
2023-03-11T16:06:26.312Z,82.94
2023-03-11T16:08:57.952Z,82.42
2023-03-11T16:11:28.152Z,82.13
2023-03-11T16:13:57.332Z,82.08
2023-03-11T16:16:28.087Z,81.69
2023-03-11T16:18:57.105Z,81.57
2023-03-11T16:21:33.633Z,81.60
2023-03-11T16:24:01.964Z,81.72
2023-03-11T16:26:31.272Z,82.30
2023-03-11T16:29:16.666Z,83.05
2023-03-11T16:31:47.455Z,83.86
2023-03-11T16:34:16.523Z,84.13
2023-03-11T16:36:45.009Z,84.72
2023-03-11T16:39:14.677Z,84.98
2023-03-11T16:41:46.079Z,85.03
2023-03-11T16:44:19.734Z,84.92
2023-03-11T16:46:49.002Z,84.72
2023-03-11T16:49:18.833Z,84.53
2023-03-11T16:51:47.903Z,84.38
2023-03-11T16:54:17.019Z,84.29
2023-03-11T16:56:45.465Z,84.34
2023-03-11T16:59:16.106Z,84.36
2023-03-11T17:01:45.243Z,84.45
2023-03-11T17:04:16.888Z,84.64
2023-03-11T17:06:47.373Z,85.03
2023-03-11T17:09:17.345Z,85.08
2023-03-11T17:11:45.661Z,85.14
2023-03-11T17:14:16.831Z,85.12
2023-03-11T17:16:45.401Z,85.08
2023-03-11T17:19:13.596Z,85.02
2023-03-11T17:21:41.911Z,85.01
2023-03-11T17:24:12.378Z,85.02
2023-03-11T17:26:40.683Z,85.04
2023-03-11T17:29:08.715Z,85.06
2023-03-11T17:31:37.782Z,85.02
2023-03-11T17:34:05.890Z,84.85
2023-03-11T17:36:34.364Z,84.87
2023-03-11T17:39:03.210Z,84.87
2023-03-11T17:41:31.267Z,84.73
2023-03-11T17:43:59.252Z,84.48
2023-03-11T17:46:27.727Z,84.43
2023-03-11T17:48:55.720Z,84.25
2023-03-11T17:51:26.262Z,83.68
2023-03-11T17:53:55.817Z,83.44
2023-03-11T17:56:24.183Z,83.23
2023-03-11T17:58:52.555Z,82.92
2023-03-11T18:01:23.432Z,82.46
2023-03-11T18:03:52.093Z,81.90
2023-03-11T18:06:21.784Z,81.51
2023-03-11T18:08:50.863Z,81.22
2023-03-11T18:11:22.591Z,80.56
2023-03-11T18:13:51.540Z,79.99
2023-03-11T18:16:22.495Z,79.86
2023-03-11T18:18:52.016Z,79.39
2023-03-11T18:21:23.106Z,79.08
2023-03-11T18:23:59.418Z,78.76
2023-03-11T18:26:29.514Z,78.91
2023-03-11T18:28:59.062Z,78.18
2023-03-11T18:31:29.508Z,78.22
2023-03-11T18:34:01.026Z,78.15
2023-03-11T18:36:32.810Z,77.79
2023-03-11T18:39:01.757Z,77.79
2023-03-11T18:41:32.980Z,77.50
2023-03-11T18:44:02.835Z,77.58
2023-03-11T18:46:32.708Z,77.68
2023-03-11T18:49:03.861Z,77.39
2023-03-11T18:51:32.621Z,77.21
2023-03-11T18:54:01.679Z,77.18
2023-03-11T18:56:33.188Z,77.25
2023-03-11T18:59:14.203Z,77.28
2023-03-11T19:04:37.293Z,77.36
2023-03-11T19:07:05.708Z,77.44
2023-03-11T19:09:34.140Z,77.29
2023-03-11T19:12:02.454Z,77.49
2023-03-11T19:14:30.580Z,77.37
2023-03-11T19:16:58.991Z,77.29
2023-03-11T19:19:27.139Z,77.31
2023-03-11T19:21:55.096Z,77.22
2023-03-11T19:24:23.258Z,77.31
2023-03-11T19:26:51.254Z,77.26
2023-03-11T19:29:19.797Z,77.33
2023-03-11T19:31:48.035Z,77.28
2023-03-11T19:34:16.239Z,77.42
2023-03-11T19:36:47.250Z,77.46
2023-03-11T19:39:15.715Z,77.69
2023-03-11T19:41:43.810Z,77.85
2023-03-11T19:44:11.888Z,77.93
2023-03-11T19:46:40.289Z,78.07
2023-03-11T19:49:08.379Z,78.21
2023-03-11T19:51:49.092Z,78.32
2023-03-11T19:54:19.459Z,78.49
2023-03-11T19:56:48.578Z,78.57
2023-03-11T19:59:17.813Z,78.59
2023-03-11T20:01:47.036Z,78.70
2023-03-11T20:04:15.465Z,78.76
2023-03-11T20:06:45.021Z,78.91
2023-03-11T20:09:15.847Z,79.08
2023-03-11T20:11:45.891Z,79.35
2023-03-11T20:14:14.601Z,79.46
2023-03-11T20:16:43.202Z,79.63
2023-03-11T20:19:12.040Z,79.83
2023-03-11T20:21:40.984Z,79.98
2023-03-11T20:24:10.395Z,80.22
2023-03-11T20:26:38.981Z,80.34
2023-03-11T20:29:07.645Z,80.36
2023-03-11T20:31:36.641Z,80.50
2023-03-11T20:34:05.549Z,80.47
2023-03-11T20:36:34.214Z,80.44
2023-03-11T20:39:04.277Z,80.39
2023-03-11T20:41:38.700Z,80.36
2023-03-11T20:44:08.809Z,80.33
2023-03-11T20:46:37.405Z,80.30
2023-03-11T20:49:06.367Z,80.22
2023-03-11T20:51:34.766Z,80.26
2023-03-11T20:54:03.105Z,80.33
2023-03-11T20:56:51.213Z,80.25
2023-03-11T20:59:19.801Z,80.25
2023-03-11T21:01:49.384Z,80.22
2023-03-11T21:04:17.838Z,80.22
2023-03-11T21:07:07.901Z,80.14
2023-03-11T21:09:44.810Z,80.10
2023-03-11T21:12:12.852Z,80.13
2023-03-11T21:14:41.729Z,80.21
2023-03-11T21:17:10.329Z,80.39
2023-03-11T21:19:38.747Z,80.52
2023-03-11T21:22:06.945Z,80.79
2023-03-11T21:24:35.337Z,81.03
2023-03-11T21:27:03.754Z,81.17
2023-03-11T21:29:31.941Z,81.25
2023-03-11T21:32:00.163Z,81.39
2023-03-11T21:34:28.499Z,81.42
2023-03-11T21:36:56.580Z,81.53
2023-03-11T21:39:25.960Z,81.70
2023-03-11T21:41:56.866Z,81.97
2023-03-11T21:44:25.253Z,82.18
2023-03-11T21:46:53.966Z,82.28
2023-03-11T21:49:22.519Z,82.25
2023-03-11T21:51:50.857Z,82.19
2023-03-11T21:54:19.197Z,82.15
2023-03-11T21:56:47.804Z,82.04
2023-03-11T21:59:17.371Z,82.07
2023-03-11T22:01:45.814Z,82.01
2023-03-11T22:04:14.069Z,81.85
2023-03-11T22:06:42.528Z,81.69
2023-03-11T22:09:11.304Z,81.62
2023-03-11T22:11:43.545Z,81.64
2023-03-11T22:14:11.758Z,81.65
2023-03-11T22:16:40.742Z,81.63
2023-03-11T22:19:10.134Z,81.70
2023-03-11T22:21:38.224Z,81.76
2023-03-11T22:24:06.499Z,81.92
2023-03-11T22:26:35.371Z,82.02
2023-03-11T22:29:07.216Z,82.09
2023-03-11T22:31:37.075Z,82.17
2023-03-11T22:34:05.194Z,82.24
2023-03-11T22:36:33.395Z,82.26
2023-03-11T22:39:04.487Z,82.34
2023-03-11T22:41:34.236Z,82.51
2023-03-11T22:44:02.416Z,82.59
2023-03-11T22:46:30.464Z,82.63
2023-03-11T22:48:59.535Z,82.68
2023-03-11T22:51:27.645Z,82.66
2023-03-11T22:53:55.721Z,82.72
2023-03-11T22:56:24.825Z,82.79
2023-03-11T22:58:54.620Z,82.87
2023-03-11T23:01:23.522Z,82.88
2023-03-11T23:03:51.658Z,82.93
2023-03-11T23:06:21.237Z,82.98
2023-03-11T23:08:49.312Z,83.12
2023-03-11T23:11:21.313Z,83.11
2023-03-11T23:13:50.126Z,83.16
2023-03-11T23:16:21.708Z,83.27
2023-03-11T23:18:57.115Z,83.30
2023-03-11T23:21:32.033Z,83.46
2023-03-11T23:24:01.835Z,83.57
2023-03-11T23:26:30.588Z,83.65
2023-03-11T23:29:01.034Z,83.74
2023-03-11T23:31:30.153Z,83.74
2023-03-11T23:33:58.974Z,83.82
2023-03-11T23:36:30.356Z,83.82
2023-03-11T23:39:00.733Z,83.90
2023-03-11T23:41:29.313Z,83.92
2023-03-11T23:43:57.572Z,83.97
2023-03-11T23:46:25.663Z,84.05
2023-03-11T23:48:54.072Z,84.18
2023-03-11T23:51:22.263Z,84.22
2023-03-11T23:53:51.318Z,84.29
2023-03-11T23:56:19.665Z,84.30
2023-03-11T23:58:48.117Z,84.42
